createdAt,value
2022-10-31T00:01:21.013Z,6.17
2022-10-31T00:03:48.555Z,6.57
2022-10-31T00:06:15.792Z,5.97
2022-10-31T00:08:42.312Z,7.13
2022-10-31T00:11:12.049Z,6.70
2022-10-31T00:13:38.745Z,6.17
2022-10-31T00:16:05.805Z,6.50
2022-10-31T00:18:32.352Z,6.10
2022-10-31T00:21:03.651Z,5.83
2022-10-31T00:23:30.452Z,5.87
2022-10-31T00:26:04.776Z,6.07
2022-10-31T00:28:31.729Z,5.60
2022-10-31T00:31:02.690Z,6.83
2022-10-31T00:33:29.645Z,5.57
2022-10-31T00:35:56.510Z,6.07
2022-10-31T00:38:23.541Z,5.70
2022-10-31T00:40:50.051Z,7.50
2022-10-31T00:43:16.651Z,5.57
2022-10-31T00:45:43.847Z,6.50
2022-10-31T00:48:10.779Z,7.27
2022-10-31T00:50:37.560Z,7.37
2022-10-31T00:53:04.204Z,6.40
2022-10-31T00:55:30.858Z,6.20
2022-10-31T00:57:57.746Z,7.20
2022-10-31T01:00:24.593Z,6.37
2022-10-31T01:02:51.218Z,7.00
2022-10-31T01:05:18.091Z,5.40
2022-10-31T01:07:44.677Z,6.97
2022-10-31T01:10:11.666Z,6.67
2022-10-31T01:12:46.695Z,6.37
2022-10-31T01:15:15.256Z,5.70
2022-10-31T01:17:41.777Z,6.13
2022-10-31T01:20:09.645Z,5.97
2022-10-31T01:22:36.201Z,5.97
2022-10-31T01:25:03.007Z,5.90
2022-10-31T01:27:29.557Z,5.43
2022-10-31T01:29:56.057Z,6.13
2022-10-31T01:32:22.626Z,6.60
2022-10-31T01:34:49.548Z,6.43
2022-10-31T01:37:16.108Z,5.53
2022-10-31T01:39:42.856Z,6.23
2022-10-31T01:42:18.264Z,6.77
2022-10-31T01:44:50.579Z,6.13
2022-10-31T01:47:20.701Z,6.23
2022-10-31T01:49:57.697Z,6.00
2022-10-31T01:52:38.719Z,5.57
2022-10-31T01:55:30.359Z,5.83
2022-10-31T01:58:03.040Z,5.47
2022-10-31T02:00:29.958Z,5.73
2022-10-31T02:02:57.053Z,5.93
2022-10-31T02:05:28.284Z,5.70
2022-10-31T02:07:54.766Z,6.60
2022-10-31T02:10:23.330Z,6.33
2022-10-31T02:12:53.781Z,6.83
2022-10-31T02:15:20.373Z,6.63
2022-10-31T02:17:47.221Z,6.40
2022-10-31T02:20:22.760Z,6.57
2022-10-31T02:22:52.254Z,6.50
2022-10-31T02:25:33.794Z,6.33
2022-10-31T02:28:20.432Z,7.33
2022-10-31T02:31:13.297Z,5.60
2022-10-31T02:33:58.513Z,5.83
2022-10-31T02:36:31.228Z,5.87
2022-10-31T02:39:00.710Z,5.83
2022-10-31T02:41:53.012Z,6.43
2022-10-31T02:44:37.533Z,6.07
2022-10-31T02:47:12.338Z,5.90
2022-10-31T02:49:46.413Z,6.53
2022-10-31T02:52:19.914Z,5.73
2022-10-31T02:54:48.370Z,5.70
2022-10-31T02:57:18.017Z,6.53
2022-10-31T02:59:59.881Z,5.97
2022-10-31T03:02:57.550Z,5.80
2022-10-31T03:05:31.997Z,6.40
2022-10-31T03:08:21.014Z,5.80
2022-10-31T03:11:00.605Z,5.87
2022-10-31T03:13:30.143Z,5.67
2022-10-31T03:16:09.711Z,5.53
2022-10-31T03:18:49.025Z,5.63
2022-10-31T03:21:21.193Z,5.67
2022-10-31T03:23:50.194Z,4.87
2022-10-31T03:26:18.577Z,5.63
2022-10-31T03:28:50.686Z,5.27
2022-10-31T03:31:19.753Z,5.80
2022-10-31T03:33:48.164Z,5.50
2022-10-31T03:36:16.582Z,5.17
2022-10-31T03:38:46.196Z,5.10
2022-10-31T03:41:19.965Z,5.47
2022-10-31T03:43:55.870Z,5.10
2022-10-31T03:46:23.218Z,5.43
2022-10-31T03:48:49.897Z,5.73
2022-10-31T03:51:23.223Z,4.90
2022-10-31T03:54:10.446Z,4.33
2022-10-31T03:56:51.831Z,5.57
2022-10-31T03:59:31.009Z,4.70
2022-10-31T04:02:06.015Z,5.40
2022-10-31T04:04:33.889Z,5.70
2022-10-31T04:07:02.767Z,4.73
2022-10-31T04:09:33.309Z,4.93
2022-10-31T04:12:01.492Z,5.27
2022-10-31T04:14:32.024Z,5.20
2022-10-31T04:16:58.769Z,5.10
2022-10-31T04:19:25.348Z,6.03
2022-10-31T04:21:51.849Z,5.23
2022-10-31T04:24:18.496Z,5.80
2022-10-31T04:26:45.000Z,5.30
2022-10-31T04:29:11.513Z,5.30
2022-10-31T04:31:38.081Z,4.93
2022-10-31T04:34:04.636Z,4.90
2022-10-31T04:36:31.229Z,5.73
2022-10-31T04:38:57.726Z,5.33
2022-10-31T04:41:24.246Z,5.63
2022-10-31T04:43:50.962Z,5.43
2022-10-31T04:46:17.529Z,5.47
2022-10-31T04:48:44.045Z,6.03
2022-10-31T04:51:10.611Z,6.30
2022-10-31T04:53:37.136Z,6.43
2022-10-31T04:56:04.107Z,5.00
2022-10-31T04:58:30.663Z,5.03
2022-10-31T05:00:57.615Z,4.93
2022-10-31T05:03:24.302Z,5.37
2022-10-31T05:05:51.286Z,5.80
2022-10-31T05:08:17.850Z,5.50
2022-10-31T05:10:44.426Z,5.50
2022-10-31T05:13:11.135Z,5.63
2022-10-31T05:15:37.697Z,5.67
2022-10-31T05:18:04.682Z,6.00
2022-10-31T05:20:31.833Z,5.53
2022-10-31T05:22:59.541Z,5.87
2022-10-31T05:25:28.520Z,5.33
2022-10-31T05:27:56.121Z,5.57
2022-10-31T05:30:25.817Z,5.77
2022-10-31T05:32:52.693Z,4.90
2022-10-31T05:35:31.255Z,5.40
2022-10-31T05:38:01.414Z,5.93
2022-10-31T05:40:28.456Z,5.47
2022-10-31T05:42:57.038Z,5.43
2022-10-31T05:45:23.961Z,6.13
2022-10-31T05:47:59.757Z,5.40
2022-10-31T05:50:28.358Z,6.23
2022-10-31T05:52:57.369Z,5.40
2022-10-31T05:55:24.025Z,5.13
2022-10-31T05:57:50.605Z,6.17
2022-10-31T06:00:17.444Z,5.40
2022-10-31T06:02:43.997Z,5.70
2022-10-31T06:05:10.615Z,5.20
2022-10-31T06:07:37.478Z,5.63
2022-10-31T06:10:06.707Z,5.93
2022-10-31T06:12:38.324Z,5.63
2022-10-31T06:15:09.389Z,5.60
2022-10-31T06:17:36.346Z,5.83
2022-10-31T06:20:03.246Z,6.67
2022-10-31T06:22:29.756Z,6.00
2022-10-31T06:24:56.535Z,6.37
2022-10-31T06:27:23.510Z,6.73
2022-10-31T06:29:50.225Z,5.83
2022-10-31T06:32:17.694Z,6.23
2022-10-31T06:34:44.558Z,5.80
2022-10-31T06:37:12.654Z,5.50
2022-10-31T06:39:39.546Z,5.60
2022-10-31T06:42:06.126Z,6.17
2022-10-31T06:44:33.048Z,6.13
2022-10-31T06:46:59.819Z,6.20
2022-10-31T06:49:26.334Z,5.80
2022-10-31T06:51:53.098Z,7.87
2022-10-31T06:54:19.668Z,7.17
2022-10-31T06:56:49.163Z,7.30
2022-10-31T06:59:16.648Z,7.10
2022-10-31T07:01:43.597Z,7.13
2022-10-31T07:04:11.390Z,7.17
2022-10-31T07:06:38.203Z,8.13
2022-10-31T07:09:05.300Z,7.93
2022-10-31T07:11:31.798Z,8.80
2022-10-31T07:13:58.349Z,7.57
2022-10-31T07:16:25.131Z,7.97
2022-10-31T07:18:51.641Z,6.90
2022-10-31T07:21:18.372Z,7.33
2022-10-31T07:23:44.976Z,7.53
2022-10-31T07:26:11.643Z,8.00
2022-10-31T07:28:38.197Z,7.70
2022-10-31T07:31:04.816Z,8.83
2022-10-31T07:33:31.316Z,8.23
2022-10-31T07:35:57.878Z,8.73
2022-10-31T07:38:24.478Z,8.07
2022-10-31T07:40:53.648Z,9.33
2022-10-31T07:43:20.865Z,7.97
2022-10-31T07:45:52.561Z,8.20
2022-10-31T07:48:19.355Z,7.90
2022-10-31T07:50:46.041Z,7.67
2022-10-31T07:53:13.681Z,8.00
2022-10-31T07:55:40.706Z,8.53
2022-10-31T07:58:16.276Z,8.60
2022-10-31T08:00:45.022Z,8.43
2022-10-31T08:03:16.995Z,9.33
2022-10-31T08:05:45.675Z,8.27
2022-10-31T08:08:12.701Z,9.07
2022-10-31T08:10:41.331Z,8.53
2022-10-31T08:13:11.191Z,8.40
2022-10-31T08:15:40.381Z,8.50
2022-10-31T08:18:07.932Z,8.87
2022-10-31T08:20:34.746Z,8.37
2022-10-31T08:23:04.365Z,8.43
2022-10-31T08:25:37.195Z,8.40
2022-10-31T08:28:06.653Z,8.73
2022-10-31T08:30:35.950Z,9.03
2022-10-31T08:33:12.278Z,8.80
2022-10-31T08:35:40.339Z,8.20
2022-10-31T08:38:08.965Z,9.67
2022-10-31T08:40:36.543Z,9.30
2022-10-31T08:43:11.753Z,8.03
2022-10-31T08:45:38.392Z,8.70
2022-10-31T08:48:07.514Z,7.60
2022-10-31T08:50:35.817Z,8.00
2022-10-31T08:53:17.993Z,7.63
2022-10-31T08:55:45.742Z,8.20
2022-10-31T08:58:17.409Z,7.90
2022-10-31T09:00:45.200Z,7.23
2022-10-31T09:03:21.604Z,7.23
2022-10-31T09:05:48.460Z,7.30
2022-10-31T09:08:16.887Z,6.93
2022-10-31T09:10:45.160Z,6.67
2022-10-31T09:13:14.559Z,6.33
2022-10-31T09:15:44.535Z,7.00
2022-10-31T09:18:12.280Z,6.60
2022-10-31T09:20:40.460Z,7.13
2022-10-31T09:23:13.255Z,6.50
2022-10-31T09:25:40.553Z,7.10
2022-10-31T09:28:09.801Z,6.77
2022-10-31T09:30:37.084Z,7.73
2022-10-31T09:33:11.049Z,7.47
2022-10-31T09:35:38.176Z,6.87
2022-10-31T09:38:13.359Z,6.07
2022-10-31T09:40:41.045Z,6.40
2022-10-31T09:43:54.885Z,6.80
2022-10-31T09:46:52.012Z,7.57
2022-10-31T09:49:33.559Z,6.87
2022-10-31T09:52:37.771Z,7.27
2022-10-31T09:55:20.700Z,7.13
2022-10-31T09:57:48.716Z,7.10
2022-10-31T10:00:18.722Z,6.70
2022-10-31T10:02:50.705Z,6.90
2022-10-31T10:05:28.552Z,7.37
2022-10-31T10:08:11.613Z,7.00
2022-10-31T10:10:50.559Z,6.93
2022-10-31T10:13:43.975Z,7.17
2022-10-31T10:16:40.243Z,6.73
2022-10-31T10:19:33.351Z,7.40
2022-10-31T10:22:21.778Z,6.87
2022-10-31T10:25:12.066Z,6.53
2022-10-31T10:27:47.650Z,6.60
2022-10-31T10:30:18.330Z,6.23
2022-10-31T10:32:55.808Z,7.53
2022-10-31T10:35:33.705Z,6.50
2022-10-31T10:38:09.865Z,7.50
2022-10-31T10:40:36.444Z,7.47
2022-10-31T10:43:35.887Z,7.03
2022-10-31T10:46:52.558Z,7.20
2022-10-31T10:49:33.832Z,6.50
2022-10-31T10:52:39.579Z,7.70
2022-10-31T10:55:45.999Z,7.53
2022-10-31T10:58:13.013Z,6.90
2022-10-31T11:00:47.210Z,7.33
2022-10-31T11:03:18.669Z,7.47
2022-10-31T11:05:53.934Z,7.40
2022-10-31T11:08:28.855Z,9.70
2022-10-31T11:11:26.222Z,7.40
2022-10-31T11:14:12.277Z,7.20
2022-10-31T11:16:45.585Z,6.23
2022-10-31T11:19:27.282Z,7.03
2022-10-31T11:21:54.526Z,6.67
2022-10-31T11:24:26.989Z,7.37
2022-10-31T11:27:12.257Z,6.40
2022-10-31T11:29:38.813Z,7.10
2022-10-31T11:32:05.394Z,7.60
2022-10-31T11:34:44.432Z,7.00
2022-10-31T11:37:19.053Z,7.37
2022-10-31T11:39:54.128Z,7.43
2022-10-31T11:42:24.112Z,6.67
2022-10-31T11:44:51.941Z,7.53
2022-10-31T11:47:26.985Z,7.27
2022-10-31T11:49:54.264Z,7.20
2022-10-31T11:52:27.801Z,7.20
2022-10-31T11:55:01.388Z,8.33
2022-10-31T11:57:30.975Z,8.17
2022-10-31T12:00:00.021Z,8.77
2022-10-31T12:02:27.519Z,8.97
2022-10-31T12:05:22.416Z,9.53
2022-10-31T12:07:50.039Z,10.00
2022-10-31T12:10:17.360Z,10.67
2022-10-31T12:13:21.708Z,10.13
2022-10-31T12:15:58.986Z,10.03
2022-10-31T12:18:45.789Z,8.80
2022-10-31T12:21:41.601Z,9.10
2022-10-31T12:24:31.811Z,8.73
2022-10-31T12:27:13.625Z,8.07
2022-10-31T12:30:04.548Z,8.10
2022-10-31T12:32:44.827Z,7.83
2022-10-31T12:35:24.672Z,7.77
2022-10-31T12:38:08.073Z,7.53
2022-10-31T12:41:10.966Z,8.20
2022-10-31T12:43:43.534Z,7.37
2022-10-31T12:46:38.768Z,8.00
2022-10-31T12:49:17.412Z,7.90
2022-10-31T12:52:15.037Z,6.93
2022-10-31T12:55:31.037Z,7.20
2022-10-31T12:58:10.298Z,7.40
2022-10-31T13:00:42.578Z,6.73
2022-10-31T13:03:54.368Z,7.30
2022-10-31T13:06:25.212Z,7.30
2022-10-31T13:09:02.081Z,5.90
2022-10-31T13:11:37.608Z,7.13
2022-10-31T13:14:16.565Z,7.53
2022-10-31T13:16:46.997Z,6.97
2022-10-31T13:19:31.260Z,6.70
2022-10-31T13:22:21.349Z,6.93
2022-10-31T13:25:09.671Z,6.57
2022-10-31T13:27:59.531Z,6.80
2022-10-31T13:30:30.043Z,6.73
2022-10-31T13:33:19.488Z,5.90
2022-10-31T13:36:22.216Z,6.40
2022-10-31T13:38:54.538Z,6.63
2022-10-31T13:41:33.807Z,6.43
2022-10-31T13:44:26.732Z,6.60
2022-10-31T13:46:55.289Z,6.30
2022-10-31T13:49:30.671Z,6.43
2022-10-31T13:52:12.527Z,6.30
2022-10-31T13:54:52.531Z,7.13
2022-10-31T13:57:34.618Z,6.00
2022-10-31T14:00:27.902Z,6.10
2022-10-31T14:02:58.154Z,6.43
2022-10-31T14:05:36.179Z,6.27
2022-10-31T14:08:05.490Z,6.63
2022-10-31T14:10:47.116Z,5.23
2022-10-31T14:13:35.321Z,5.97
2022-10-31T14:16:03.578Z,6.13
2022-10-31T14:18:31.782Z,6.43
2022-10-31T14:20:58.509Z,6.17
2022-10-31T14:23:31.090Z,6.07
2022-10-31T14:26:29.329Z,6.10
2022-10-31T14:28:57.050Z,7.30
2022-10-31T14:31:45.750Z,8.20
2022-10-31T14:34:34.490Z,6.90
2022-10-31T14:37:28.249Z,7.00
2022-10-31T14:40:19.850Z,7.50
2022-10-31T14:43:23.641Z,7.10
2022-10-31T14:46:01.881Z,7.57
2022-10-31T14:48:50.081Z,6.77
2022-10-31T14:51:22.955Z,6.80
2022-10-31T14:53:52.284Z,6.67
2022-10-31T14:56:30.401Z,7.67
2022-10-31T14:59:02.007Z,7.00
2022-10-31T15:01:37.786Z,6.83
2022-10-31T15:04:26.946Z,7.23
2022-10-31T15:07:23.284Z,6.90
2022-10-31T15:10:03.024Z,7.57
2022-10-31T15:12:34.769Z,7.77
2022-10-31T15:15:24.719Z,6.80
2022-10-31T15:17:58.364Z,7.53
2022-10-31T15:20:31.397Z,7.50
2022-10-31T15:22:59.744Z,6.80
2022-10-31T15:25:32.101Z,7.90
2022-10-31T15:27:59.018Z,7.60
2022-10-31T15:30:28.583Z,6.90
2022-10-31T15:32:58.551Z,7.40
2022-10-31T15:35:30.820Z,7.87
2022-10-31T15:37:59.222Z,7.10
2022-10-31T15:40:27.615Z,7.80
2022-10-31T15:42:58.535Z,7.67
2022-10-31T15:45:27.998Z,9.00
2022-10-31T15:48:17.313Z,9.10
2022-10-31T15:50:55.693Z,8.53
2022-10-31T15:53:32.221Z,7.93
2022-10-31T15:56:01.725Z,7.30
2022-10-31T15:58:29.514Z,7.90
2022-10-31T16:01:05.227Z,7.63
2022-10-31T16:03:33.766Z,7.43
2022-10-31T16:06:04.595Z,8.43
2022-10-31T16:08:31.103Z,7.23
2022-10-31T16:11:00.482Z,7.53
2022-10-31T16:13:38.785Z,7.50
2022-10-31T16:16:34.040Z,7.57
2022-10-31T16:19:02.964Z,7.50
2022-10-31T16:21:39.617Z,6.90
2022-10-31T16:24:28.524Z,7.63
2022-10-31T16:27:00.706Z,9.93
2022-10-31T16:29:46.650Z,8.20
2022-10-31T16:32:36.392Z,8.00
2022-10-31T16:35:08.986Z,7.83
2022-10-31T16:37:38.672Z,8.13
2022-10-31T16:40:05.699Z,8.17
2022-10-31T16:42:32.241Z,8.33
2022-10-31T16:45:00.341Z,7.53
2022-10-31T16:47:28.541Z,8.43
2022-10-31T16:49:55.361Z,8.63
2022-10-31T16:52:22.050Z,9.00
2022-10-31T16:54:48.597Z,8.27
2022-10-31T16:57:22.246Z,8.10
2022-10-31T16:59:52.545Z,8.93
2022-10-31T17:02:19.244Z,7.57
2022-10-31T17:04:46.368Z,7.63
2022-10-31T17:07:14.224Z,8.87
2022-10-31T17:09:40.914Z,8.93
2022-10-31T17:12:13.614Z,8.00
2022-10-31T17:14:40.327Z,8.20
2022-10-31T17:17:08.172Z,9.30
2022-10-31T17:19:34.966Z,8.63
2022-10-31T17:22:02.685Z,9.20
2022-10-31T17:24:29.357Z,9.00
2022-10-31T17:26:56.044Z,9.47
2022-10-31T17:29:22.640Z,8.10
2022-10-31T17:31:49.594Z,8.00
2022-10-31T17:34:16.216Z,8.90
2022-10-31T17:36:54.844Z,8.97
2022-10-31T17:39:21.941Z,8.13
2022-10-31T17:41:52.516Z,9.53
2022-10-31T17:44:19.558Z,8.73
2022-10-31T17:46:46.198Z,8.63
2022-10-31T17:49:12.989Z,9.20
2022-10-31T17:51:39.597Z,9.17
2022-10-31T17:54:08.718Z,9.47
2022-10-31T17:56:35.364Z,10.33
2022-10-31T17:59:02.437Z,10.80
2022-10-31T18:01:29.235Z,10.33
2022-10-31T18:03:56.996Z,9.97
2022-10-31T18:06:23.622Z,9.43
2022-10-31T18:08:53.750Z,10.03
2022-10-31T18:11:21.673Z,9.13
2022-10-31T18:13:53.909Z,10.70
2022-10-31T18:16:20.809Z,9.53
2022-10-31T18:18:52.839Z,9.93
2022-10-31T18:21:53.830Z,10.13
2022-10-31T18:24:20.491Z,10.07
2022-10-31T18:26:48.198Z,10.43
2022-10-31T18:29:15.082Z,10.40
2022-10-31T18:31:42.067Z,9.67
2022-10-31T18:34:08.812Z,9.37
2022-10-31T18:36:35.491Z,9.13
2022-10-31T18:39:03.137Z,8.70
2022-10-31T18:41:29.750Z,9.10
2022-10-31T18:43:59.774Z,10.00
2022-10-31T18:46:27.748Z,9.57
2022-10-31T18:48:54.440Z,9.73
2022-10-31T18:51:21.064Z,9.53
2022-10-31T18:53:56.119Z,8.27
2022-10-31T18:56:23.496Z,8.50
2022-10-31T18:58:50.530Z,8.87
2022-10-31T19:01:19.176Z,9.27
2022-10-31T19:03:46.181Z,8.43
2022-10-31T19:06:12.804Z,8.53
2022-10-31T19:08:40.646Z,9.27
2022-10-31T19:11:13.913Z,9.40
2022-10-31T19:13:41.549Z,8.33
2022-10-31T19:16:14.029Z,8.73
2022-10-31T19:18:41.921Z,8.00
2022-10-31T19:21:18.930Z,7.73
2022-10-31T19:23:45.918Z,8.57
2022-10-31T19:26:13.976Z,8.87
2022-10-31T19:28:41.563Z,9.07
2022-10-31T19:31:09.051Z,8.83
2022-10-31T19:33:36.521Z,8.67
2022-10-31T19:36:09.565Z,7.97
2022-10-31T19:38:38.062Z,8.70
2022-10-31T19:41:07.726Z,9.23
2022-10-31T19:43:34.533Z,9.27
2022-10-31T19:46:03.662Z,9.47
2022-10-31T19:48:31.865Z,9.17
2022-10-31T19:51:03.747Z,8.97
2022-10-31T19:53:31.546Z,7.20
2022-10-31T19:55:59.414Z,9.73
2022-10-31T19:58:26.306Z,9.43
2022-10-31T20:00:53.317Z,8.70
2022-10-31T20:03:22.520Z,9.43
2022-10-31T20:05:51.156Z,8.10
2022-10-31T20:08:20.282Z,8.50
2022-10-31T20:10:58.209Z,9.33
2022-10-31T20:13:25.501Z,9.37
2022-10-31T20:15:52.980Z,8.70
2022-10-31T20:18:19.953Z,10.00
2022-10-31T20:20:48.328Z,9.83
2022-10-31T20:23:14.999Z,9.33
2022-10-31T20:25:50.459Z,8.93
2022-10-31T20:28:21.567Z,9.37
2022-10-31T20:30:50.186Z,9.37
2022-10-31T20:33:16.982Z,9.37
2022-10-31T20:35:43.825Z,9.93
2022-10-31T20:38:10.831Z,9.97
2022-10-31T20:40:42.823Z,10.07
2022-10-31T20:43:12.741Z,10.80
2022-10-31T20:45:40.530Z,10.13
2022-10-31T20:48:07.440Z,9.03
2022-10-31T20:50:34.183Z,11.07
2022-10-31T20:53:02.259Z,11.97
2022-10-31T20:55:29.322Z,12.03
2022-10-31T20:57:56.939Z,11.13
2022-10-31T21:00:23.632Z,11.87
2022-10-31T21:02:50.729Z,10.90
2022-10-31T21:05:17.525Z,11.57
2022-10-31T21:07:44.242Z,9.87
2022-10-31T21:10:17.241Z,10.80
2022-10-31T21:12:44.970Z,11.70
2022-10-31T21:15:13.700Z,10.50
2022-10-31T21:17:41.400Z,10.00
2022-10-31T21:20:10.051Z,9.47
2022-10-31T21:22:36.838Z,11.53
2022-10-31T21:25:03.741Z,9.47
2022-10-31T21:27:31.031Z,11.57
2022-10-31T21:29:57.737Z,9.50
2022-10-31T21:32:24.257Z,10.87
2022-10-31T21:34:50.842Z,10.50
2022-10-31T21:37:17.719Z,10.17
2022-10-31T21:39:49.649Z,9.60
2022-10-31T21:42:20.534Z,9.70
2022-10-31T21:44:48.822Z,9.10
2022-10-31T21:47:15.793Z,8.77
2022-10-31T21:49:42.440Z,9.53
2022-10-31T21:52:09.070Z,8.70
2022-10-31T21:54:37.146Z,9.17
2022-10-31T21:57:03.846Z,9.77
2022-10-31T21:59:30.704Z,8.90
2022-10-31T22:01:59.549Z,9.33
2022-10-31T22:04:27.149Z,9.03
2022-10-31T22:06:53.961Z,9.50
2022-10-31T22:09:20.750Z,9.73
2022-10-31T22:11:47.271Z,9.73
2022-10-31T22:14:14.865Z,8.73
2022-10-31T22:16:41.779Z,9.07
2022-10-31T22:19:10.421Z,8.93
2022-10-31T22:21:46.285Z,9.50
2022-10-31T22:24:13.487Z,8.67
2022-10-31T22:26:40.607Z,8.60
2022-10-31T22:29:11.325Z,8.97
2022-10-31T22:31:40.734Z,8.13
2022-10-31T22:34:08.024Z,9.03
2022-10-31T22:36:35.057Z,8.43
2022-10-31T22:39:01.766Z,10.20
2022-10-31T22:41:29.896Z,8.23
2022-10-31T22:43:57.228Z,8.20
2022-10-31T22:46:32.340Z,8.23
2022-10-31T22:49:05.657Z,7.83
2022-10-31T22:51:35.482Z,7.83
2022-10-31T22:54:02.109Z,8.53
2022-10-31T22:56:33.673Z,8.20
2022-10-31T22:59:01.343Z,8.33
2022-10-31T23:01:30.175Z,8.67
2022-10-31T23:03:56.878Z,8.27
2022-10-31T23:06:26.053Z,7.80
2022-10-31T23:08:53.789Z,8.40
2022-10-31T23:11:24.706Z,7.63
2022-10-31T23:14:08.895Z,7.73
2022-10-31T23:16:35.437Z,7.87
2022-10-31T23:19:07.571Z,7.47
2022-10-31T23:22:00.918Z,7.57
2022-10-31T23:24:34.566Z,7.30
2022-10-31T23:27:08.972Z,7.20
2022-10-31T23:29:50.597Z,7.20
2022-10-31T23:32:19.326Z,7.50
2022-10-31T23:34:47.263Z,6.90
2022-10-31T23:37:14.583Z,8.17
2022-10-31T23:39:41.469Z,7.63
2022-10-31T23:42:08.012Z,6.83
2022-10-31T23:44:34.565Z,6.70
2022-10-31T23:47:01.242Z,6.67
2022-10-31T23:49:29.248Z,7.10
2022-10-31T23:51:58.957Z,8.37
2022-10-31T23:54:26.616Z,7.50
2022-10-31T23:56:54.039Z,7.33
2022-10-31T23:59:22.720Z,7.07
